Time;durP1;ratioP1;P1;durP2;ratioP2;P2;SDS_P1;SDS_P2;PMS_P1;PMS_P2;Temp;Humidity;BMP_temperature;BMP_pressure;BME280_temperature;BME280_humidity;BME280_pressure;Samples;Min_cycle;Max_cycle;Signal;HPM_P1;HPM_P2
2021/08/10 00:02:04;;;;;;;4.75;2.40;;;15.60;99.90;;;;;;5016096;28;20029;-73
2021/08/10 00:04:29;;;;;;;4.10;2.28;;;15.60;99.90;;;;;;5015929;28;20030;-73
2021/08/10 00:06:55;;;;;;;4.40;2.03;;;15.60;99.90;;;;;;5016492;28;20396;-73
2021/08/10 00:09:20;;;;;;;3.17;2.25;;;15.70;99.90;;;;;;5014795;28;20041;-73
2021/08/10 00:11:46;;;;;;;4.00;2.33;;;15.80;99.90;;;;;;5015899;28;20134;-73
2021/08/10 00:14:12;;;;;;;3.22;2.00;;;15.70;99.90;;;;;;5012906;28;20015;-73
2021/08/10 00:16:38;;;;;;;4.80;2.22;;;15.60;99.90;;;;;;4996331;28;20432;-73
2021/08/10 00:19:04;;;;;;;4.75;2.30;;;15.50;99.90;;;;;;4996521;28;20472;-73
2021/08/10 00:21:29;;;;;;;5.07;2.47;;;15.50;99.90;;;;;;4995993;28;20061;-72
2021/08/10 00:23:55;;;;;;;3.03;2.30;;;15.50;99.90;;;;;;4996384;28;20064;-73
2021/08/10 00:26:21;;;;;;;3.28;2.08;;;15.40;99.90;;;;;;4996373;28;20053;-73
2021/08/10 00:28:46;;;;;;;3.25;2.10;;;15.50;99.90;;;;;;4995207;28;20018;-73
2021/08/10 00:31:12;;;;;;;4.10;2.00;;;15.50;99.90;;;;;;4996500;28;20519;-73
2021/08/10 00:33:37;;;;;;;3.25;2.60;;;15.40;99.90;;;;;;4995141;28;20103;-73
2021/08/10 00:36:03;;;;;;;2.78;2.03;;;15.50;99.90;;;;;;4996028;28;20485;-73
2021/08/10 00:38:29;;;;;;;2.38;2.17;;;15.20;99.90;;;;;;4994594;28;20027;-73
2021/08/10 00:40:56;;;;;;;3.60;2.30;;;15.10;99.90;;;;;;4995209;28;20026;-73
2021/08/10 00:43:48;;;;;;;3.80;2.20;;;15.20;99.90;;;;;;4995972;28;20037;-73
2021/08/10 00:46:15;;;;;;;4.20;2.40;;;15.30;99.90;;;;;;4995756;28;20035;-73
2021/08/10 00:48:41;;;;;;;3.58;2.13;;;15.20;99.90;;;;;;4996249;28;20034;-73
2021/08/10 00:51:09;;;;;;;4.35;2.38;;;15.20;99.90;;;;;;4994526;28;20026;-73
2021/08/10 00:53:35;;;;;;;3.97;2.25;;;15.10;99.90;;;;;;4994838;28;20030;-73
2021/08/10 00:56:05;;;;;;;4.38;2.28;;;15.10;99.90;;;;;;4995778;28;20304;-73
2021/08/10 00:58:31;;;;;;;4.00;2.30;;;15.10;99.90;;;;;;4995261;28;20117;-73
2021/08/10 01:00:57;;;;;;;5.68;2.15;;;14.70;99.90;;;;;;4995935;28;20080;-73
2021/08/10 01:03:23;;;;;;;4.75;2.70;;;14.70;99.90;;;;;;4996203;28;20515;-73
2021/08/10 01:05:50;;;;;;;7.03;2.40;;;14.70;99.90;;;;;;4995653;28;20038;-73
2021/08/10 01:08:25;;;;;;;4.55;2.50;;;14.60;99.90;;;;;;4996110;28;20014;-73
2021/08/10 01:11:05;;;;;;;4.00;2.00;;;14.60;99.90;;;;;;4994510;28;20026;-73
2021/08/10 01:13:55;;;;;;;3.20;2.15;;;14.70;99.90;;;;;;4994771;28;20523;-73
2021/08/10 01:16:39;;;;;;;4.30;2.70;;;14.50;99.90;;;;;;4982860;28;20038;-73
2021/08/10 01:19:34;;;;;;;3.65;2.50;;;14.60;99.90;;;;;;4995820;28;20022;-73
2021/08/10 01:22:02;;;;;;;4.30;2.78;;;14.50;99.90;;;;;;4995803;28;20034;-73
2021/08/10 01:25:05;;;;;;;4.05;2.33;;;14.40;99.90;;;;;;4994124;28;20030;-73
2021/08/10 01:27:54;;;;;;;4.03;2.53;;;14.40;99.90;;;;;;4994067;28;20018;-73
2021/08/10 01:30:33;;;;;;;4.05;2.40;;;14.40;99.90;;;;;;4994102;28;20034;-73
2021/08/10 01:33:00;;;;;;;3.80;2.17;;;14.40;99.90;;;;;;4994207;28;20030;-73
2021/08/10 01:35:28;;;;;;;2.65;2.30;;;14.40;99.90;;;;;;4998410;28;20112;-73
2021/08/10 01:37:56;;;;;;;4.30;2.47;;;14.30;99.90;;;;;;5014950;28;20411;-73
2021/08/10 01:40:25;;;;;;;3.22;2.63;;;14.30;99.90;;;;;;5013607;28;20480;-73
2021/08/10 01:42:53;;;;;;;5.20;2.30;;;14.30;99.90;;;;;;5014586;28;20030;-73
2021/08/10 01:45:19;;;;;;;3.03;2.40;;;14.20;99.90;;;;;;5014065;28;20036;-73
2021/08/10 01:47:47;;;;;;;5.90;2.55;;;14.20;99.90;;;;;;5013489;28;20026;-73
2021/08/10 01:50:13;;;;;;;3.72;2.72;;;14.30;99.90;;;;;;5014466;28;20094;-73
2021/08/10 01:52:41;;;;;;;4.15;2.20;;;14.30;99.90;;;;;;5014462;28;20049;-73
2021/08/10 01:55:07;;;;;;;4.53;2.45;;;14.30;99.90;;;;;;5014276;28;20037;-73
2021/08/10 01:57:34;;;;;;;2.70;2.30;;;14.50;99.90;;;;;;5014433;28;20036;-73
2021/08/10 01:59:59;;;;;;;4.30;2.17;;;14.60;99.90;;;;;;5014406;28;20583;-73
2021/08/10 02:02:25;;;;;;;3.95;2.50;;;14.60;99.90;;;;;;5014381;28;20022;-73
2021/08/10 02:04:52;;;;;;;5.38;2.40;;;14.50;99.90;;;;;;5012742;28;20045;-73
2021/08/10 02:07:19;;;;;;;5.57;2.90;;;14.50;99.90;;;;;;5014408;28;20022;-73
2021/08/10 02:09:46;;;;;;;2.95;2.50;;;14.30;99.90;;;;;;5014097;28;20499;-73
2021/08/10 02:12:12;;;;;;;4.43;2.78;;;14.20;99.90;;;;;;5014581;28;20121;-73
2021/08/10 02:14:39;;;;;;;3.60;2.25;;;14.20;99.90;;;;;;5005981;28;20025;-73
2021/08/10 02:17:07;;;;;;;3.38;2.70;;;14.20;99.90;;;;;;4994240;28;20034;-73
2021/08/10 02:19:34;;;;;;;3.63;2.65;;;14.20;99.90;;;;;;4994634;28;20034;-73
2021/08/10 02:22:03;;;;;;;4.80;2.67;;;14.20;99.90;;;;;;4993301;28;20022;-73
2021/08/10 02:24:57;;;;;;;4.00;2.53;;;14.50;99.90;;;;;;5001418;28;20104;-73
2021/08/10 02:27:27;;;;;;;4.18;2.85;;;14.60;99.90;;;;;;5014580;28;20570;-72
2021/08/10 02:29:54;;;;;;;5.35;3.20;;;14.60;99.90;;;;;;5015710;28;20036;-73
2021/08/10 02:32:26;;;;;;;4.13;2.67;;;14.60;99.90;;;;;;5013485;28;20097;-73
2021/08/10 02:34:52;;;;;;;4.43;2.42;;;14.60;99.90;;;;;;5013278;28;20034;-73
2021/08/10 02:37:19;;;;;;;4.50;2.42;;;14.60;99.90;;;;;;5013450;28;20036;-73
2021/08/10 02:39:47;;;;;;;4.38;2.63;;;14.60;99.90;;;;;;5013455;28;20025;-72
2021/08/10 02:42:16;;;;;;;5.43;2.30;;;14.60;99.90;;;;;;5013559;28;20072;-73
2021/08/10 02:44:43;;;;;;;6.78;2.70;;;14.70;99.90;;;;;;5011921;28;20038;-73
2021/08/10 02:47:09;;;;;;;4.22;2.92;;;14.80;99.90;;;;;;5013465;28;20022;-73
2021/08/10 02:49:35;;;;;;;2.85;2.33;;;14.70;99.90;;;;;;5013684;28;20080;-73
2021/08/10 02:52:00;;;;;;;5.18;2.88;;;14.70;99.90;;;;;;5013180;28;20481;-73
2021/08/10 02:54:26;;;;;;;4.57;2.42;;;14.80;99.90;;;;;;5013175;28;20030;-73
2021/08/10 02:56:55;;;;;;;4.28;2.78;;;14.90;99.90;;;;;;5013519;28;20022;-73
2021/08/10 02:59:25;;;;;;;4.47;3.13;;;14.70;99.90;;;;;;5013290;28;20022;-73
2021/08/10 03:02:17;;;;;;;5.60;2.53;;;14.60;99.90;;;;;;5013395;28;20037;-73
2021/08/10 03:04:56;;;;;;;5.30;2.35;;;14.60;99.90;;;;;;5013549;28;20309;-72
2021/08/10 03:07:24;;;;;;;8.73;2.83;;;14.70;99.90;;;;;;5013500;28;20025;-73
2021/08/10 03:09:54;;;;;;;5.82;2.83;;;14.90;99.90;;;;;;5013268;28;20030;-73
2021/08/10 03:12:22;;;;;;;3.25;2.45;;;14.70;99.90;;;;;;5013414;28;20021;-73
2021/08/10 03:14:50;;;;;;;4.07;2.40;;;14.60;99.90;;;;;;5005452;28;20026;-73
2021/08/10 03:17:17;;;;;;;3.45;2.45;;;14.60;99.90;;;;;;4993955;28;20030;-73
2021/08/10 03:19:45;;;;;;;3.10;2.80;;;14.80;99.90;;;;;;4992289;28;20521;-73
2021/08/10 03:22:11;;;;;;;3.72;2.60;;;14.70;99.90;;;;;;4993580;28;20461;-73
2021/08/10 03:24:38;;;;;;;4.22;2.60;;;14.60;99.90;;;;;;4993398;28;20050;-73
2021/08/10 03:27:05;;;;;;;4.55;2.42;;;14.40;99.90;;;;;;4993992;28;20372;-72
2021/08/10 03:29:33;;;;;;;3.80;2.67;;;14.40;99.90;;;;;;4993401;28;20026;-73
2021/08/10 03:31:59;;;;;;;6.32;3.30;;;14.30;99.90;;;;;;4992160;28;20022;-73
2021/08/10 03:34:25;;;;;;;4.63;2.88;;;14.30;99.90;;;;;;4993316;28;20065;-73
2021/08/10 03:36:53;;;;;;;5.85;2.83;;;14.30;99.90;;;;;;4993815;28;20102;-73
2021/08/10 03:39:19;;;;;;;3.38;2.80;;;14.40;99.90;;;;;;4993468;28;20029;-73
2021/08/10 03:41:45;;;;;;;3.40;2.97;;;14.40;99.90;;;;;;4992125;28;20019;-73
2021/08/10 03:44:11;;;;;;;4.05;2.95;;;14.40;99.90;;;;;;4992168;28;20176;-73
2021/08/10 03:46:36;;;;;;;4.90;2.60;;;14.50;99.90;;;;;;4993446;28;20529;-73
2021/08/10 03:49:02;;;;;;;3.88;2.80;;;14.40;99.90;;;;;;4993257;28;20029;-73
2021/08/10 03:51:29;;;;;;;5.45;2.60;;;14.40;99.90;;;;;;4993369;28;20510;-73
2021/08/10 03:53:55;;;;;;;6.07;3.10;;;14.30;99.90;;;;;;4993627;28;20022;-73
2021/08/10 03:56:25;;;;;;;6.28;3.20;;;14.30;99.90;;;;;;4995360;28;20037;-73
2021/08/10 03:58:54;;;;;;;4.50;2.58;;;14.10;99.90;;;;;;4996730;28;20030;-73
2021/08/10 04:01:23;;;;;;;4.05;2.67;;;14.20;99.90;;;;;;4996945;28;20034;-73
2021/08/10 04:03:49;;;;;;;7.90;3.20;;;14.20;99.90;;;;;;4996689;28;20045;-73
2021/08/10 04:06:15;;;;;;;6.05;3.40;;;13.90;99.90;;;;;;4995439;28;20452;-73
2021/08/10 04:08:41;;;;;;;5.47;3.20;;;13.50;99.90;;;;;;4995710;28;20034;-73
2021/08/10 04:11:07;;;;;;;4.32;3.28;;;13.80;99.90;;;;;;4996206;28;20125;-73
2021/08/10 04:13:33;;;;;;;9.02;3.85;;;13.80;99.90;;;;;;4995341;28;20054;-73
2021/08/10 04:16:05;;;;;;;5.35;3.90;;;13.90;99.90;;;;;;4996300;28;20444;-73
2021/08/10 04:18:34;;;;;;;5.75;3.13;;;14.10;99.90;;;;;;4995124;28;20400;-73
2021/08/10 04:21:00;;;;;;;5.72;3.08;;;13.80;99.90;;;;;;4996423;28;20088;-73
2021/08/10 04:23:25;;;;;;;5.45;3.28;;;14.00;99.90;;;;;;4996521;28;20103;-72
2021/08/10 04:25:51;;;;;;;6.78;3.40;;;13.80;99.90;;;;;;4994624;28;20026;-72
2021/08/10 04:28:17;;;;;;;4.13;3.72;;;13.60;99.90;;;;;;4996045;28;20028;-73
2021/08/10 04:30:43;;;;;;;4.93;3.50;;;13.60;99.90;;;;;;4996395;28;20026;-73
2021/08/10 04:33:09;;;;;;;4.90;3.92;;;13.70;99.90;;;;;;4996144;28;20030;-73
2021/08/10 04:35:35;;;;;;;5.20;3.30;;;13.70;99.90;;;;;;4995570;28;20073;-73
2021/08/10 04:38:02;;;;;;;5.68;3.50;;;13.70;99.90;;;;;;4994431;28;20081;-73
2021/08/10 04:40:28;;;;;;;7.68;3.97;;;13.90;99.90;;;;;;4995272;28;20027;-72
2021/08/10 04:42:58;;;;;;;6.75;4.00;;;13.90;99.90;;;;;;4994351;28;20074;-72
2021/08/10 04:45:24;;;;;;;6.88;3.45;;;14.00;99.90;;;;;;4994116;28;20591;-72
2021/08/10 04:47:52;;;;;;;6.78;4.13;;;14.10;99.90;;;;;;4995449;28;20066;-72
2021/08/10 04:50:17;;;;;;;6.70;3.92;;;14.20;99.90;;;;;;4995397;28;20088;-72
2021/08/10 04:52:43;;;;;;;4.43;3.22;;;14.40;99.90;;;;;;4994606;28;20026;-72
2021/08/10 04:55:09;;;;;;;4.88;3.30;;;14.50;99.90;;;;;;4995234;28;20022;-73
2021/08/10 04:57:34;;;;;;;6.70;3.40;;;14.50;99.90;;;;;;4994299;28;20502;-73
2021/08/10 05:00:01;;;;;;;4.95;3.25;;;14.50;99.90;;;;;;4995399;28;20164;-72
2021/08/10 05:02:26;;;;;;;5.47;3.40;;;14.70;99.90;;;;;;4995258;28;20022;-73
2021/08/10 05:04:52;;;;;;;5.80;3.40;;;14.70;99.90;;;;;;4995466;28;20041;-73
2021/08/10 05:07:18;;;;;;;5.03;3.60;;;14.80;99.90;;;;;;4994447;28;20023;-73
2021/08/10 05:09:43;;;;;;;5.13;3.10;;;14.80;99.90;;;;;;4995670;28;20072;-73
2021/08/10 05:12:09;;;;;;;4.43;3.22;;;15.00;99.90;;;;;;4995070;28;20026;-72
2021/08/10 05:14:35;;;;;;;6.45;3.28;;;15.00;99.90;;;;;;4993614;28;20110;-73
2021/08/10 05:17:01;;;;;;;5.47;2.88;;;15.20;99.90;;;;;;4995369;28;20030;-73
2021/08/10 05:19:27;;;;;;;4.72;3.03;;;15.60;99.90;;;;;;4994452;28;20081;-72
2021/08/10 05:21:52;;;;;;;4.70;3.55;;;15.30;99.90;;;;;;4993591;28;20473;-72
2021/08/10 05:24:18;;;;;;;3.92;2.88;;;15.30;99.90;;;;;;4993404;28;20062;-72
2021/08/10 05:26:43;;;;;;;4.10;2.90;;;15.50;99.90;;;;;;4993712;28;20077;-72
2021/08/10 05:29:09;;;;;;;4.63;3.15;;;15.50;99.90;;;;;;4993711;28;20505;-72
2021/08/10 05:31:34;;;;;;;7.38;3.72;;;15.40;99.90;;;;;;4993935;28;20018;-72
2021/08/10 05:34:00;;;;;;;8.00;4.15;;;15.40;99.90;;;;;;4993484;28;20030;-72
2021/08/10 05:36:25;;;;;;;4.65;3.97;;;15.40;99.90;;;;;;4993231;28;20176;-72
2021/08/10 05:38:53;;;;;;;8.85;5.13;;;15.50;99.90;;;;;;4993206;28;20038;-72
2021/08/10 05:41:20;;;;;;;8.20;5.40;;;15.40;99.90;;;;;;4993184;28;20031;-72
2021/08/10 05:43:46;;;;;;;6.18;3.85;;;15.40;99.90;;;;;;4993307;28;20105;-72
2021/08/10 05:46:12;;;;;;;6.13;3.80;;;15.30;99.90;;;;;;4993049;28;20074;-72
2021/08/10 05:48:38;;;;;;;6.93;4.05;;;15.10;99.90;;;;;;4993227;28;20045;-72
2021/08/10 05:51:04;;;;;;;6.85;3.70;;;15.20;99.90;;;;;;4992983;28;20034;-72
2021/08/10 05:53:35;;;;;;;5.75;4.22;;;15.00;99.90;;;;;;4992972;28;20029;-72
2021/08/10 05:56:02;;;;;;;6.70;3.40;;;15.00;99.90;;;;;;4992904;28;20026;-72
2021/08/10 05:58:27;;;;;;;7.18;3.78;;;15.20;99.90;;;;;;4993063;28;20054;-72
2021/08/10 06:00:53;;;;;;;5.20;3.33;;;15.40;99.90;;;;;;4992908;28;20144;-72
2021/08/10 06:03:19;;;;;;;8.85;3.60;;;15.50;99.90;;;;;;4993021;28;20034;-72
2021/08/10 06:05:44;;;;;;;3.83;3.40;;;15.60;99.90;;;;;;4992590;28;20054;-72
2021/08/10 06:08:10;;;;;;;9.10;3.85;;;15.80;99.90;;;;;;4992993;28;20100;-72
2021/08/10 06:10:36;;;;;;;5.85;3.13;;;15.80;99.90;;;;;;4992766;28;20102;-72
2021/08/10 06:13:01;;;;;;;5.78;3.55;;;15.80;99.90;;;;;;4992812;28;20105;-72
2021/08/10 06:15:28;;;;;;;4.30;3.45;;;15.90;99.90;;;;;;4992468;28;20034;-72
2021/08/10 06:17:54;;;;;;;6.50;3.70;;;16.00;99.90;;;;;;4991126;28;20050;-72
2021/08/10 06:20:20;;;;;;;4.75;3.70;;;16.10;99.90;;;;;;4992555;28;20065;-72
2021/08/10 06:22:45;;;;;;;6.38;3.70;;;16.10;99.90;;;;;;4992505;28;20038;-72
2021/08/10 06:25:12;;;;;;;3.90;3.30;;;16.30;99.90;;;;;;4992460;28;20481;-72
2021/08/10 06:27:37;;;;;;;6.22;3.60;;;16.50;99.90;;;;;;4992625;28;20022;-72
2021/08/10 06:30:05;;;;;;;5.15;3.65;;;16.80;99.90;;;;;;4992516;28;20397;-72
2021/08/10 06:32:30;;;;;;;6.28;3.35;;;16.80;99.90;;;;;;4992330;28;20050;-72
2021/08/10 06:34:56;;;;;;;6.35;3.45;;;16.90;99.90;;;;;;4992188;28;20475;-72
2021/08/10 06:37:21;;;;;;;4.82;3.28;;;16.80;99.90;;;;;;4992412;28;20034;-72
2021/08/10 06:39:47;;;;;;;5.80;3.38;;;16.90;99.90;;;;;;4992480;28;20113;-72
2021/08/10 06:42:12;;;;;;;3.78;3.40;;;16.80;99.90;;;;;;4992244;28;20030;-72
2021/08/10 06:44:38;;;;;;;5.35;3.30;;;16.80;99.90;;;;;;4992064;28;20045;-72
2021/08/10 06:47:04;;;;;;;7.65;4.00;;;17.00;99.90;;;;;;4992254;28;20026;-72
2021/08/10 06:49:30;;;;;;;5.82;3.22;;;17.20;99.90;;;;;;4990931;28;20454;-72
2021/08/10 06:51:55;;;;;;;7.00;3.97;;;17.30;99.90;;;;;;4992368;28;20018;-72
2021/08/10 06:54:21;;;;;;;6.25;3.78;;;17.40;99.90;;;;;;4992090;28;20374;-72
2021/08/10 06:56:47;;;;;;;7.72;3.97;;;17.40;99.90;;;;;;4992211;28;20034;-72
2021/08/10 06:59:12;;;;;;;5.65;3.67;;;17.40;99.90;;;;;;4992285;28;20056;-72
2021/08/10 07:01:38;;;;;;;7.07;3.13;;;17.50;99.90;;;;;;4991998;28;20041;-72
2021/08/10 07:04:03;;;;;;;5.22;3.22;;;17.40;99.90;;;;;;4992125;28;20042;-72
2021/08/10 07:06:30;;;;;;;7.70;3.67;;;17.50;99.90;;;;;;4991860;28;20120;-72
2021/08/10 07:08:59;;;;;;;3.67;2.90;;;17.50;99.90;;;;;;4992473;28;20381;-72
2021/08/10 07:11:25;;;;;;;9.20;3.22;;;17.60;99.90;;;;;;4992065;28;20097;-72
2021/08/10 07:13:50;;;;;;;5.70;3.17;;;17.80;99.90;;;;;;4992117;28;20058;-72
2021/08/10 07:16:16;;;;;;;4.40;3.33;;;18.10;99.90;;;;;;4992058;28;20560;-72
2021/08/10 07:18:41;;;;;;;3.55;2.78;;;18.30;99.90;;;;;;4992000;28;20040;-72
2021/08/10 07:21:07;;;;;;;5.65;3.17;;;18.20;99.90;;;;;;5005134;28;20134;-72
2021/08/10 07:23:32;;;;;;;5.43;3.05;;;18.20;99.90;;;;;;4992425;28;20481;-76
2021/08/10 07:25:58;;;;;;;6.22;3.30;;;18.20;99.90;;;;;;4991746;28;20451;-72
2021/08/10 07:28:23;;;;;;;4.40;2.92;;;18.20;99.90;;;;;;4992010;28;20038;-72
2021/08/10 07:30:49;;;;;;;4.55;3.38;;;18.30;99.90;;;;;;4993512;28;20038;-72
2021/08/10 07:33:14;;;;;;;5.88;3.63;;;18.50;99.90;;;;;;4995652;28;20073;-72
2021/08/10 07:35:40;;;;;;;6.65;3.47;;;19.00;99.90;;;;;;4995390;28;20030;-72
2021/08/10 07:38:06;;;;;;;5.90;3.45;;;19.10;99.90;;;;;;4995967;28;20031;-72
2021/08/10 07:40:31;;;;;;;5.28;2.90;;;19.20;99.90;;;;;;4995758;28;20393;-72
2021/08/10 07:42:57;;;;;;;6.22;2.80;;;19.40;99.90;;;;;;4995987;28;20488;-72
2021/08/10 07:45:23;;;;;;;3.60;2.60;;;19.60;99.90;;;;;;4995153;28;20065;-72
2021/08/10 07:47:49;;;;;;;4.93;3.15;;;19.50;99.90;;;;;;4995396;28;20033;-72
2021/08/10 07:50:15;;;;;;;6.32;2.75;;;19.50;99.90;;;;;;4995170;28;20121;-72
2021/08/10 07:52:41;;;;;;;4.07;2.88;;;19.50;99.90;;;;;;4995390;28;20485;-72
2021/08/10 07:55:07;;;;;;;4.07;2.72;;;19.40;99.90;;;;;;4995181;28;20485;-72
2021/08/10 07:57:34;;;;;;;3.33;2.20;;;19.20;99.90;;;;;;4994199;28;20060;-72
2021/08/10 08:00:00;;;;;;;4.65;2.55;;;19.70;99.90;;;;;;4995095;28;20030;-72
2021/08/10 08:02:25;;;;;;;5.68;2.90;;;20.10;99.90;;;;;;4995037;28;20030;-72
2021/08/10 08:04:51;;;;;;;8.40;3.25;;;20.20;99.90;;;;;;4994892;28;20101;-72
2021/08/10 08:07:16;;;;;;;4.72;2.60;;;20.50;99.90;;;;;;4995209;28;20029;-72
2021/08/10 08:09:42;;;;;;;4.78;2.72;;;20.50;99.90;;;;;;4995102;28;20580;-72
2021/08/10 08:12:08;;;;;;;3.47;2.60;;;20.30;99.90;;;;;;4995019;28;20033;-72
2021/08/10 08:14:33;;;;;;;6.20;2.83;;;20.40;99.90;;;;;;4994575;28;20489;-72
2021/08/10 08:16:59;;;;;;;4.97;2.50;;;20.50;99.90;;;;;;4994897;28;20034;-72
2021/08/10 08:19:25;;;;;;;4.28;2.75;;;20.70;99.90;;;;;;4994912;28;20105;-72
2021/08/10 08:21:50;;;;;;;8.88;3.08;;;20.90;99.90;;;;;;4994754;28;20030;-72
2021/08/10 08:24:16;;;;;;;3.05;2.33;;;20.60;99.90;;;;;;4995095;28;20026;-72
2021/08/10 08:26:41;;;;;;;3.92;2.35;;;20.40;99.90;;;;;;4993163;28;20026;-72
2021/08/10 08:29:07;;;;;;;3.03;2.42;;;20.20;99.90;;;;;;4994579;28;20018;-72
2021/08/10 08:31:32;;;;;;;5.90;2.80;;;20.40;99.90;;;;;;4994547;28;20066;-72
2021/08/10 08:33:58;;;;;;;5.78;2.58;;;20.70;99.90;;;;;;4994550;28;20058;-72
2021/08/10 08:36:23;;;;;;;5.28;2.92;;;21.10;99.90;;;;;;4993120;28;20030;-72
2021/08/10 08:38:49;;;;;;;5.05;2.70;;;21.30;99.90;;;;;;4994637;28;20037;-72
2021/08/10 08:41:15;;;;;;;6.68;2.45;;;21.30;99.90;;;;;;4994793;28;20035;-72
2021/08/10 08:43:40;;;;;;;3.97;2.45;;;21.50;99.90;;;;;;4994476;28;20551;-72
2021/08/10 08:46:06;;;;;;;5.50;2.45;;;21.30;99.90;;;;;;4994143;28;20038;-72
2021/08/10 08:48:32;;;;;;;6.13;2.70;;;20.80;99.90;;;;;;4994236;28;20022;-72
2021/08/10 08:51:00;;;;;;;4.45;2.97;;;20.30;99.90;;;;;;5005727;28;20030;-72
2021/08/10 08:53:26;;;;;;;5.95;3.05;;;20.20;99.90;;;;;;5013876;28;20022;-73
2021/08/10 08:55:52;;;;;;;4.53;3.00;;;20.40;99.90;;;;;;5013724;28;20034;-72
2021/08/10 08:58:18;;;;;;;6.32;3.08;;;20.30;99.90;;;;;;5013728;28;20022;-72
2021/08/10 09:00:44;;;;;;;4.97;2.97;;;20.10;99.90;;;;;;5013576;28;20087;-72
2021/08/10 09:03:10;;;;;;;5.72;2.97;;;20.30;99.90;;;;;;5013646;28;20029;-72
2021/08/10 09:05:39;;;;;;;5.13;2.88;;;20.40;99.90;;;;;;5012133;28;20037;-72
2021/08/10 09:08:26;;;;;;;5.28;3.03;;;20.60;99.90;;;;;;5013575;28;20025;-72
2021/08/10 09:10:54;;;;;;;5.60;3.30;;;20.60;99.90;;;;;;5013465;28;20022;-73
2021/08/10 09:13:19;;;;;;;7.90;3.78;;;20.60;99.90;;;;;;5013447;28;20061;-73
2021/08/10 09:15:46;;;;;;;5.38;3.20;;;20.80;99.90;;;;;;4997717;28;20073;-72
2021/08/10 09:18:17;;;;;;;5.10;3.47;;;21.10;99.90;;;;;;4993714;28;20025;-72
2021/08/10 09:21:15;;;;;;;5.93;3.50;;;21.10;99.90;;;;;;4993605;28;20076;-73
2021/08/10 09:23:51;;;;;;;5.38;3.47;;;21.30;99.90;;;;;;4994126;28;20038;-72
2021/08/10 09:26:38;;;;;;;6.97;3.20;;;21.30;99.90;;;;;;5012923;28;20026;-72
2021/08/10 09:29:04;;;;;;;7.20;3.60;;;21.20;99.90;;;;;;5012965;28;20034;-72
2021/08/10 09:31:33;;;;;;;4.85;3.47;;;21.00;99.90;;;;;;5013084;28;20053;-72
2021/08/10 09:34:02;;;;;;;4.03;3.25;;;21.00;99.90;;;;;;5013053;28;20500;-72
2021/08/10 09:36:28;;;;;;;8.43;3.20;;;21.00;99.90;;;;;;5012814;28;20387;-73
2021/08/10 09:38:56;;;;;;;5.07;3.20;;;21.10;99.90;;;;;;5012980;28;20026;-72
2021/08/10 09:41:23;;;;;;;6.90;3.03;;;21.20;99.90;;;;;;5013368;28;20113;-73
2021/08/10 09:43:50;;;;;;;6.75;3.17;;;21.40;99.90;;;;;;5013177;28;20033;-72
2021/08/10 09:46:17;;;;;;;9.90;3.50;;;21.60;99.90;;;;;;5013013;28;20029;-72
2021/08/10 09:48:49;;;;;;;4.53;3.30;;;21.50;99.90;;;;;;5013192;28;20018;-73
2021/08/10 09:51:17;;;;;;;7.32;3.63;;;21.30;99.90;;;;;;5012328;28;20033;-72
2021/08/10 09:54:00;;;;;;;4.90;2.95;;;21.30;99.90;;;;;;5012157;28;20105;-72
2021/08/10 09:56:53;;;;;;;3.88;2.88;;;21.50;99.90;;;;;;5012397;28;20029;-72
2021/08/10 09:59:24;;;;;;;4.65;3.28;;;21.50;99.90;;;;;;5012568;28;20030;-72
2021/08/10 10:01:57;;;;;;;4.95;2.90;;;21.20;99.90;;;;;;5012790;28;20021;-72
2021/08/10 10:04:28;;;;;;;5.70;2.78;;;21.40;99.90;;;;;;5010972;28;20053;-72
2021/08/10 10:06:58;;;;;;;4.50;3.00;;;21.40;99.90;;;;;;5012549;28;20021;-72
2021/08/10 10:09:27;;;;;;;4.53;2.38;;;21.30;99.90;;;;;;5012464;28;20014;-72
2021/08/10 10:11:55;;;;;;;7.00;2.88;;;21.10;99.90;;;;;;5012814;28;20026;-72
2021/08/10 10:14:22;;;;;;;8.65;2.72;;;20.90;99.90;;;;;;5008253;28;20266;-72
2021/08/10 10:16:51;;;;;;;4.82;2.83;;;21.50;99.90;;;;;;4992831;28;20037;-72
2021/08/10 10:19:18;;;;;;;4.75;2.40;;;21.70;99.90;;;;;;4992643;28;20022;-73
2021/08/10 10:21:49;;;;;;;4.80;2.70;;;22.20;99.90;;;;;;4991198;28;20112;-72
2021/08/10 10:24:17;;;;;;;6.07;2.60;;;22.00;99.90;;;;;;4992417;28;20029;-72
2021/08/10 10:26:58;;;;;;;5.25;2.80;;;22.00;99.90;;;;;;4992421;28;20417;-72
2021/08/10 10:29:25;;;;;;;6.47;2.50;;;21.80;99.90;;;;;;4992663;28;20025;-72
2021/08/10 10:31:51;;;;;;;5.32;2.67;;;21.70;99.90;;;;;;4992420;28;20040;-72
2021/08/10 10:34:18;;;;;;;7.60;3.00;;;21.80;99.90;;;;;;4992649;28;20314;-72
2021/08/10 10:36:45;;;;;;;3.85;2.10;;;21.70;99.90;;;;;;4990981;28;20033;-72
2021/08/10 10:39:14;;;;;;;4.60;2.40;;;21.60;99.90;;;;;;4992522;28;20031;-72
2021/08/10 10:41:40;;;;;;;6.40;2.55;;;21.90;99.90;;;;;;4992164;28;20023;-73
2021/08/10 10:44:10;;;;;;;2.90;2.17;;;21.70;99.90;;;;;;4992491;28;20393;-72
2021/08/10 10:46:40;;;;;;;3.78;2.22;;;21.70;99.90;;;;;;4992051;28;20023;-72
2021/08/10 10:49:09;;;;;;;3.95;2.60;;;21.60;99.90;;;;;;4992194;28;20432;-73
2021/08/10 10:51:39;;;;;;;6.10;2.13;;;21.80;99.90;;;;;;4992222;28;20053;-72
2021/08/10 10:54:26;;;;;;;4.68;2.33;;;21.90;99.90;;;;;;4992292;28;20050;-72
2021/08/10 10:56:53;;;;;;;;;;;22.10;99.90;;;;;;4992661;28;20033;-72
2021/08/10 10:59:34;;;;;;;4.82;2.33;;;22.10;99.90;;;;;;4992317;28;19905;-72
2021/08/10 11:02:22;;;;;;;5.50;2.58;;;21.90;99.90;;;;;;4992193;28;20026;-72
2021/08/10 11:05:21;;;;;;;4.00;2.20;;;22.20;99.90;;;;;;4992369;28;20026;-72
2021/08/10 11:07:54;;;;;;;5.93;2.40;;;22.30;99.90;;;;;;4995772;28;20404;-72
2021/08/10 11:10:22;;;;;;;3.15;2.50;;;22.30;99.90;;;;;;4996095;28;20503;-73
2021/08/10 11:12:48;;;;;;;6.97;2.70;;;22.70;99.90;;;;;;4996079;28;20532;-72
2021/08/10 11:15:18;;;;;;;4.90;2.40;;;23.00;99.90;;;;;;4995957;28;20034;-73
2021/08/10 11:18:10;;;;;;;7.05;2.78;;;23.10;99.90;;;;;;5013708;28;20500;-73
2021/08/10 11:20:46;;;;;;;5.32;2.65;;;22.70;99.90;;;;;;5012995;28;20081;-73
2021/08/10 11:23:21;;;;;;;3.35;2.20;;;22.70;99.90;;;;;;4986575;28;20030;-73
2021/08/10 11:25:48;;;;;;;3.67;2.45;;;22.60;99.90;;;;;;5013396;28;20021;-73
2021/08/10 11:28:31;;;;;;;3.85;2.63;;;22.80;99.90;;;;;;5015513;28;20558;-73
2021/08/10 11:31:11;;;;;;;6.93;2.78;;;22.90;99.90;;;;;;5014100;28;20547;-73
2021/08/10 11:33:40;;;;;;;5.07;2.50;;;22.90;99.90;;;;;;5015737;28;20179;-73
2021/08/10 11:36:11;;;;;;;7.18;2.50;;;23.30;99.90;;;;;;5015434;28;20111;-73
2021/08/10 11:38:57;;;;;;;5.07;2.83;;;23.60;99.90;;;;;;5013791;28;20427;-73
2021/08/10 11:41:29;;;;;;;3.03;2.53;;;23.50;99.90;;;;;;5015021;28;20034;-73
2021/08/10 11:44:01;;;;;;;7.53;2.53;;;23.80;99.90;;;;;;5013912;28;20504;-73
2021/08/10 11:46:28;;;;;;;4.45;2.53;;;23.80;99.90;;;;;;5013491;28;20321;-73
2021/08/10 11:48:55;;;;;;;6.25;3.20;;;23.80;99.90;;;;;;5015065;28;20469;-73
2021/08/10 11:51:41;;;;;;;6.35;2.67;;;23.60;99.90;;;;;;5014893;28;20042;-73
2021/08/10 11:54:09;;;;;;;5.03;2.75;;;23.60;99.90;;;;;;5015008;28;20033;-73
2021/08/10 11:56:43;;;;;;;6.55;3.08;;;23.50;99.90;;;;;;5014738;28;20045;-73
2021/08/10 11:59:16;;;;;;;5.78;2.70;;;23.40;99.90;;;;;;5014925;28;20037;-73
2021/08/10 12:01:41;;;;;;;6.03;2.67;;;23.70;99.90;;;;;;5014738;28;20110;-73
2021/08/10 12:04:19;;;;;;;5.00;2.38;;;23.90;99.90;;;;;;5014695;28;20176;-73
2021/08/10 12:06:49;;;;;;;4.38;2.40;;;23.40;99.90;;;;;;5014661;28;20032;-72
2021/08/10 12:09:17;;;;;;;4.28;2.45;;;22.70;99.90;;;;;;5014697;28;20026;-73
2021/08/10 12:11:44;;;;;;;3.85;2.55;;;23.30;99.90;;;;;;5014570;28;20172;-73
2021/08/10 12:14:15;;;;;;;3.63;2.30;;;24.10;99.90;;;;;;5011961;28;20014;-73
2021/08/10 12:17:01;;;;;;;4.78;2.20;;;24.20;99.90;;;;;;4994087;28;20416;-73
2021/08/10 12:19:36;;;;;;;4.73;2.40;;;24.20;99.90;;;;;;5013784;28;20022;-73
2021/08/10 12:22:07;;;;;;;5.82;2.83;;;24.30;99.90;;;;;;5003540;28;20257;-73
2021/08/10 12:24:41;;;;;;;5.32;2.70;;;24.00;99.90;;;;;;4994627;28;20030;-73
2021/08/10 12:27:08;;;;;;;4.97;2.60;;;24.10;99.90;;;;;;4994614;28;20081;-73
2021/08/10 12:29:46;;;;;;;4.97;2.53;;;24.60;99.90;;;;;;4993599;28;20032;-73
2021/08/10 12:32:20;;;;;;;5.30;2.75;;;24.60;99.90;;;;;;4993400;28;20126;-73
2021/08/10 12:34:46;;;;;;;4.85;2.83;;;24.90;99.90;;;;;;4994612;28;20018;-73
2021/08/10 12:37:12;;;;;;;3.88;2.90;;;24.00;99.90;;;;;;4994540;28;20506;-73
2021/08/10 12:39:44;;;;;;;4.88;2.90;;;23.70;99.90;;;;;;4994437;28;20038;-73
2021/08/10 12:42:11;;;;;;;4.47;2.92;;;23.60;99.90;;;;;;4993091;28;20085;-73
2021/08/10 12:44:38;;;;;;;5.07;2.97;;;24.20;99.90;;;;;;4994309;28;20444;-73
2021/08/10 12:47:09;;;;;;;2.90;2.42;;;24.20;99.90;;;;;;4994443;28;20053;-73
2021/08/10 12:49:45;;;;;;;5.13;3.10;;;24.40;99.90;;;;;;4994355;28;20046;-73
2021/08/10 12:52:11;;;;;;;;;;;24.50;99.90;;;;;;4994635;28;20038;-73
2021/08/10 12:54:46;;;;;;;3.88;2.95;;;25.10;99.90;;;;;;4995971;28;19912;-73
2021/08/10 12:57:22;;;;;;;5.38;3.30;;;25.40;99.90;;;;;;5013755;28;20073;-73